createdAt,value
2023-09-18T00:00:10.182Z,8.45
2023-09-18T00:02:11.722Z,12.10
2023-09-18T00:04:13.486Z,8.88
2023-09-18T00:06:14.965Z,9.07
2023-09-18T00:08:17.940Z,8.23
2023-09-18T00:10:19.377Z,7.97
2023-09-18T00:12:20.841Z,9.45
2023-09-18T00:14:22.270Z,9.85
2023-09-18T00:16:24.122Z,9.70
2023-09-18T00:18:25.924Z,8.50
2023-09-18T00:20:28.278Z,10.70
2023-09-18T00:22:29.910Z,7.93
2023-09-18T00:24:31.316Z,8.50
2023-09-18T00:26:32.821Z,8.55
2023-09-18T00:28:34.257Z,9.73
2023-09-18T00:30:36.009Z,7.55
2023-09-18T00:32:37.456Z,8.70
2023-09-18T00:34:39.422Z,9.77
2023-09-18T00:36:40.981Z,8.80
2023-09-18T00:38:42.398Z,9.20
2023-09-18T00:40:44.245Z,11.52
2023-09-18T00:42:46.612Z,8.68
2023-09-18T00:44:48.141Z,8.98
2023-09-18T00:46:50.427Z,9.07
2023-09-18T00:48:52.469Z,8.27
2023-09-18T00:50:54.158Z,6.88
2023-09-18T00:52:55.921Z,6.93
2023-09-18T00:54:57.542Z,9.00
2023-09-18T00:56:59.141Z,9.00
2023-09-18T00:59:01.240Z,9.30
2023-09-18T01:01:04.467Z,9.80
2023-09-18T01:03:06.348Z,9.93
2023-09-18T01:05:07.994Z,9.48
2023-09-18T01:07:09.429Z,7.07
2023-09-18T01:09:14.127Z,8.80
2023-09-18T01:11:25.055Z,8.95
2023-09-18T01:13:35.036Z,7.65
2023-09-18T01:15:46.177Z,7.22
2023-09-18T01:17:48.153Z,9.07
2023-09-18T01:19:49.681Z,10.30
2023-09-18T01:21:51.082Z,9.27
2023-09-18T01:23:52.797Z,8.90
2023-09-18T01:25:54.273Z,13.75
2023-09-18T01:27:55.742Z,9.77
2023-09-18T01:29:57.172Z,9.18
2023-09-18T01:31:59.320Z,9.93
2023-09-18T01:34:01.986Z,12.27
2023-09-18T01:36:04.695Z,8.95
2023-09-18T01:38:07.227Z,9.07
2023-09-18T01:40:09.179Z,9.85
2023-09-18T01:42:10.861Z,9.15
2023-09-18T01:44:12.762Z,9.80
2023-09-18T01:46:14.646Z,8.82
2023-09-18T01:48:16.246Z,8.27
2023-09-18T01:50:17.726Z,9.80
2023-09-18T01:52:19.474Z,9.23
2023-09-18T01:54:21.393Z,9.13
2023-09-18T01:56:24.332Z,9.48
2023-09-18T01:58:25.821Z,9.18
2023-09-18T02:00:27.792Z,9.48
2023-09-18T02:02:43.157Z,9.35
2023-09-18T02:05:06.867Z,8.65
2023-09-18T02:07:10.930Z,6.38
2023-09-18T02:09:12.749Z,7.53
2023-09-18T02:11:14.254Z,8.70
2023-09-18T02:13:17.882Z,9.93
2023-09-18T02:15:24.280Z,11.70
2023-09-18T02:17:25.804Z,14.38
2023-09-18T02:19:27.382Z,7.07
2023-09-18T02:21:29.049Z,6.47
2023-09-18T02:23:30.519Z,5.95
2023-09-18T02:25:31.967Z,7.85
2023-09-18T02:27:33.458Z,7.78
2023-09-18T02:29:35.072Z,8.25
2023-09-18T02:31:36.583Z,11.60
2023-09-18T02:33:39.100Z,10.70
2023-09-18T02:35:41.800Z,9.27
2023-09-18T02:37:43.267Z,8.18
2023-09-18T02:39:44.664Z,7.18
2023-09-18T02:41:46.092Z,8.65
2023-09-18T02:43:47.586Z,8.77
2023-09-18T02:45:48.996Z,7.70
2023-09-18T02:47:50.542Z,8.00
2023-09-18T02:49:52.017Z,7.93
2023-09-18T02:51:53.446Z,7.70
2023-09-18T02:53:54.921Z,8.90
2023-09-18T02:55:57.932Z,7.00
2023-09-18T02:58:00.114Z,9.73
2023-09-18T03:00:01.562Z,7.25
2023-09-18T03:02:03.279Z,7.93
2023-09-18T03:04:05.132Z,7.05
2023-09-18T03:06:07.581Z,6.57
2023-09-18T03:08:09.972Z,6.60
2023-09-18T03:10:14.646Z,6.50
2023-09-18T03:12:16.089Z,8.90
2023-09-18T03:14:17.585Z,8.60
2023-09-18T03:16:19.258Z,6.75
2023-09-18T03:18:20.833Z,6.97
2023-09-18T03:20:27.595Z,7.97
2023-09-18T03:22:29.095Z,6.88
2023-09-18T03:24:30.724Z,9.02
2023-09-18T03:26:32.273Z,7.93
2023-09-18T03:28:33.750Z,8.25
2023-09-18T03:30:35.242Z,8.73
2023-09-18T03:32:37.254Z,7.68
2023-09-18T03:36:41.166Z,9.65
2023-09-18T03:38:42.728Z,6.88
2023-09-18T03:40:44.620Z,7.32
2023-09-18T03:42:47.094Z,8.88
2023-09-18T03:44:48.518Z,10.73
2023-09-18T03:46:49.930Z,9.32
2023-09-18T03:48:51.772Z,8.45
2023-09-18T03:50:53.496Z,8.73
2023-09-18T03:52:54.913Z,6.32
2023-09-18T03:54:56.617Z,9.13
2023-09-18T03:56:58.261Z,7.85
2023-09-18T03:59:02.071Z,9.60
2023-09-18T04:01:03.870Z,9.52
2023-09-18T04:03:05.502Z,8.25
2023-09-18T04:05:08.499Z,10.60
2023-09-18T04:07:10.336Z,8.27
2023-09-18T04:09:11.814Z,8.77
2023-09-18T04:11:13.463Z,11.18
2023-09-18T04:13:14.926Z,9.23
2023-09-18T04:15:16.644Z,8.20
2023-09-18T04:17:18.386Z,6.82
2023-09-18T04:19:20.318Z,8.30
2023-09-18T04:21:22.610Z,10.05
2023-09-18T04:23:26.719Z,6.88
2023-09-18T04:25:28.174Z,8.82
2023-09-18T04:27:29.606Z,7.00
2023-09-18T04:29:31.175Z,6.82
2023-09-18T04:31:33.017Z,9.45
2023-09-18T04:33:34.625Z,9.25
2023-09-18T04:35:36.175Z,7.40
2023-09-18T04:37:38.933Z,7.75
2023-09-18T04:39:40.740Z,9.23
2023-09-18T04:41:42.222Z,7.15
2023-09-18T04:43:43.830Z,9.18
2023-09-18T04:45:46.284Z,10.30
2023-09-18T04:47:47.843Z,9.68
2023-09-18T04:49:50.398Z,10.90
2023-09-18T04:51:51.813Z,8.25
2023-09-18T04:53:53.408Z,14.40
2023-09-18T04:55:55.442Z,8.57
2023-09-18T04:57:59.218Z,9.80
2023-09-18T05:00:15.571Z,9.20
2023-09-18T05:02:18.350Z,9.10
2023-09-18T05:04:19.826Z,8.32
2023-09-18T05:06:21.820Z,11.57
2023-09-18T05:08:23.698Z,11.52
2023-09-18T05:10:25.287Z,12.05
2023-09-18T05:12:26.819Z,13.50
2023-09-18T05:14:28.895Z,9.07
2023-09-18T05:16:30.398Z,8.80
2023-09-18T05:18:32.788Z,8.50
2023-09-18T05:20:35.899Z,11.55
2023-09-18T05:22:37.527Z,10.73
2023-09-18T05:24:39.717Z,7.45
2023-09-18T05:26:41.159Z,9.13
2023-09-18T05:28:42.671Z,9.25
2023-09-18T05:30:44.143Z,8.90
2023-09-18T05:32:46.904Z,9.68
2023-09-18T05:34:48.595Z,11.23
2023-09-18T05:36:50.226Z,7.55
2023-09-18T05:38:51.940Z,8.15
2023-09-18T05:40:53.655Z,11.40
2023-09-18T05:42:57.091Z,12.85
2023-09-18T05:44:58.533Z,10.68
2023-09-18T05:47:00.299Z,7.75
2023-09-18T05:49:02.336Z,10.65
2023-09-18T05:51:04.947Z,8.13
2023-09-18T05:53:06.560Z,9.52
2023-09-18T05:55:08.586Z,8.23
2023-09-18T05:57:10.051Z,9.07
2023-09-18T05:59:11.601Z,11.07
2023-09-18T06:01:13.074Z,7.93
2023-09-18T06:03:16.112Z,9.98
2023-09-18T06:05:18.738Z,9.35
2023-09-18T06:07:20.292Z,10.23
2023-09-18T06:09:22.074Z,9.68
2023-09-18T06:11:23.587Z,9.80
2023-09-18T06:13:25.802Z,7.65
2023-09-18T06:15:27.254Z,13.18
2023-09-18T06:17:28.839Z,10.80
2023-09-18T06:19:30.355Z,7.88
2023-09-18T06:21:32.875Z,10.43
2023-09-18T06:23:38.722Z,9.32
2023-09-18T06:25:40.864Z,11.82
2023-09-18T06:27:43.300Z,8.32
2023-09-18T06:29:44.785Z,7.78
2023-09-18T06:31:47.198Z,9.23
2023-09-18T06:33:48.683Z,7.13
2023-09-18T06:35:50.147Z,10.10
2023-09-18T06:37:51.710Z,8.85
2023-09-18T06:39:53.207Z,8.95
2023-09-18T06:41:54.726Z,8.15
2023-09-18T06:43:56.215Z,9.75
2023-09-18T06:45:58.919Z,7.93
2023-09-18T06:48:01.495Z,7.53
2023-09-18T06:50:05.376Z,10.52
2023-09-18T06:52:07.408Z,11.98
2023-09-18T06:54:09.029Z,7.38
2023-09-18T06:56:10.557Z,7.63
2023-09-18T06:58:12.045Z,9.45
2023-09-18T07:00:16.041Z,9.02
2023-09-18T07:02:17.869Z,7.75
2023-09-18T07:04:19.362Z,10.10
2023-09-18T07:06:21.360Z,7.40
2023-09-18T07:08:24.262Z,10.48
2023-09-18T07:10:25.834Z,8.05
2023-09-18T07:12:27.345Z,7.70
2023-09-18T07:14:28.957Z,6.53
2023-09-18T07:16:30.542Z,7.10
2023-09-18T07:18:32.034Z,8.63
2023-09-18T07:20:33.539Z,9.93
2023-09-18T07:22:35.042Z,8.07
2023-09-18T07:24:36.514Z,9.48
2023-09-18T07:26:38.077Z,6.57
2023-09-18T07:28:42.386Z,6.60
2023-09-18T07:30:44.794Z,5.93
2023-09-18T07:32:47.213Z,6.57
2023-09-18T07:34:48.810Z,7.15
2023-09-18T07:36:55.107Z,7.43
2023-09-18T07:38:57.532Z,6.18
2023-09-18T07:40:59.402Z,6.25
2023-09-18T07:43:00.981Z,5.63
2023-09-18T07:45:03.308Z,5.90
2023-09-18T07:47:04.902Z,6.40
2023-09-18T07:49:06.370Z,5.95
2023-09-18T07:53:16.210Z,5.90
2023-09-18T07:55:17.788Z,8.13
2023-09-18T07:57:20.493Z,6.00
2023-09-18T07:59:21.933Z,10.13
2023-09-18T08:01:23.873Z,12.13
2023-09-18T08:03:26.024Z,7.78
2023-09-18T08:05:32.765Z,6.45
2023-09-18T08:07:34.559Z,7.75
2023-09-18T08:09:37.423Z,5.82
2023-09-18T08:11:42.955Z,7.28
2023-09-18T08:13:44.472Z,10.18
2023-09-18T08:15:46.285Z,5.72
2023-09-18T08:17:49.639Z,5.38
2023-09-18T08:19:53.367Z,7.70
2023-09-18T08:21:55.706Z,7.25
2023-09-18T08:23:57.112Z,11.23
2023-09-18T08:25:59.366Z,7.88
2023-09-18T08:28:01.564Z,4.35
2023-09-18T08:30:03.369Z,6.20
2023-09-18T08:32:04.882Z,4.43
2023-09-18T08:34:06.405Z,5.93
2023-09-18T08:36:07.956Z,4.60
2023-09-18T08:38:09.509Z,5.60
2023-09-18T08:40:12.654Z,5.13
2023-09-18T08:42:16.307Z,6.13
2023-09-18T08:44:18.945Z,4.10
2023-09-18T08:46:22.007Z,5.25
2023-09-18T08:48:23.639Z,6.80
2023-09-18T08:50:26.418Z,3.42
2023-09-18T08:52:29.026Z,5.85
2023-09-18T08:54:30.540Z,4.55
2023-09-18T08:56:35.022Z,4.13
2023-09-18T08:58:40.866Z,6.90
2023-09-18T09:00:42.341Z,4.50
2023-09-18T09:02:49.820Z,4.35
2023-09-18T09:04:52.932Z,4.35
2023-09-18T09:06:54.634Z,4.57
2023-09-18T09:08:56.763Z,5.18
2023-09-18T09:11:01.465Z,3.22
2023-09-18T09:13:03.753Z,6.10
2023-09-18T09:15:05.918Z,3.90
2023-09-18T09:17:07.580Z,4.07
2023-09-18T09:19:09.066Z,4.78
2023-09-18T09:21:11.724Z,5.15
2023-09-18T09:23:13.152Z,4.85
2023-09-18T09:25:29.480Z,4.97
2023-09-18T09:27:43.190Z,6.68
2023-09-18T09:29:58.396Z,3.50
2023-09-18T09:32:14.441Z,4.68
2023-09-18T09:34:28.001Z,4.32
2023-09-18T09:36:29.513Z,3.78
2023-09-18T09:38:34.765Z,5.47
2023-09-18T09:40:39.118Z,3.65
2023-09-18T09:42:44.227Z,6.20
2023-09-18T09:44:47.089Z,4.65
2023-09-18T09:46:49.450Z,4.88
2023-09-18T09:49:03.050Z,4.50
2023-09-18T09:51:04.547Z,4.57
2023-09-18T09:53:06.018Z,2.42
2023-09-18T09:55:26.354Z,4.03
2023-09-18T09:57:27.762Z,4.18
2023-09-18T09:59:30.480Z,4.97
2023-09-18T10:01:32.381Z,3.38
2023-09-18T10:03:35.076Z,3.38
2023-09-18T10:05:39.644Z,4.10
2023-09-18T10:07:41.739Z,3.28
2023-09-18T10:09:44.884Z,4.60
2023-09-18T10:11:50.068Z,3.65
2023-09-18T10:14:20.047Z,3.33
2023-09-18T10:16:26.865Z,3.58
2023-09-18T10:18:47.693Z,4.90
2023-09-18T10:20:54.927Z,3.22
2023-09-18T10:22:58.102Z,3.40
2023-09-18T10:25:18.434Z,2.88
2023-09-18T10:27:22.643Z,3.45
2023-09-18T10:29:27.477Z,5.63
2023-09-18T10:31:29.865Z,4.38
2023-09-18T10:33:32.019Z,3.65
2023-09-18T10:35:33.476Z,4.57
2023-09-18T10:37:37.110Z,3.47
2023-09-18T10:39:43.292Z,4.03
2023-09-18T10:41:46.249Z,3.15
2023-09-18T10:43:51.000Z,3.03
2023-09-18T10:45:53.066Z,3.67
2023-09-18T10:47:56.370Z,3.25
2023-09-18T10:49:57.998Z,2.80
2023-09-18T10:52:00.319Z,4.57
2023-09-18T10:54:01.832Z,3.13
2023-09-18T10:56:07.159Z,4.40
2023-09-18T10:58:08.681Z,5.18
2023-09-18T11:00:15.229Z,4.60
2023-09-18T11:02:18.511Z,3.70
2023-09-18T11:04:21.863Z,3.20
2023-09-18T11:06:27.662Z,3.75
2023-09-18T11:08:35.004Z,3.35
2023-09-18T11:10:38.187Z,3.38
2023-09-18T11:12:46.407Z,4.53
2023-09-18T11:14:51.201Z,3.10
2023-09-18T11:16:52.966Z,4.43
2023-09-18T11:18:55.754Z,2.90
2023-09-18T11:21:11.329Z,3.90
2023-09-18T11:23:15.856Z,6.93
2023-09-18T11:25:35.765Z,4.20
2023-09-18T11:27:59.025Z,2.95
2023-09-18T11:30:02.250Z,3.00
2023-09-18T11:32:05.788Z,4.38
2023-09-18T11:34:13.194Z,3.10
2023-09-18T11:36:23.691Z,2.65
2023-09-18T11:38:25.289Z,3.20
2023-09-18T11:40:42.766Z,2.78
2023-09-18T11:43:20.641Z,3.40
2023-09-18T11:45:22.219Z,3.33
2023-09-18T11:47:28.920Z,3.33
2023-09-18T11:49:33.117Z,5.90
2023-09-18T11:54:02.149Z,5.20
2023-09-18T11:56:04.530Z,4.43
2023-09-18T11:58:06.925Z,6.13
2023-09-18T12:00:23.242Z,4.22
2023-09-18T12:02:37.089Z,5.47
2023-09-18T12:04:40.381Z,5.95
2023-09-18T12:06:43.127Z,2.97
2023-09-18T12:08:44.817Z,3.65
2023-09-18T12:10:50.222Z,2.55
2023-09-18T12:12:51.710Z,5.57
2023-09-18T12:14:53.259Z,3.38
2023-09-18T12:16:54.721Z,2.70
2023-09-18T12:18:56.197Z,4.88
2023-09-18T12:21:00.103Z,3.28
2023-09-18T12:23:03.634Z,3.30
2023-09-18T12:25:16.650Z,6.15
2023-09-18T12:27:18.889Z,3.45
2023-09-18T12:29:24.223Z,4.65
2023-09-18T12:31:25.830Z,2.35
2023-09-18T12:33:27.494Z,2.42
2023-09-18T12:35:31.155Z,3.53
2023-09-18T12:37:32.800Z,3.85
2023-09-18T12:39:34.311Z,4.63
2023-09-18T12:41:36.522Z,3.20
2023-09-18T12:43:42.883Z,2.42
2023-09-18T12:45:45.178Z,2.97
2023-09-18T12:47:47.168Z,2.65
2023-09-18T12:49:48.739Z,3.30
2023-09-18T12:52:00.365Z,2.60
2023-09-18T12:54:07.623Z,3.17
2023-09-18T12:56:15.962Z,3.50
2023-09-18T12:58:20.965Z,2.35
2023-09-18T13:00:24.086Z,6.97
2023-09-18T13:04:33.054Z,3.28
2023-09-18T13:06:39.127Z,3.58
2023-09-18T13:08:40.640Z,3.80
2023-09-18T13:10:46.660Z,3.33
2023-09-18T13:12:55.039Z,5.10
2023-09-18T13:15:06.139Z,3.72
2023-09-18T13:17:07.751Z,3.05
2023-09-18T13:19:09.257Z,2.83
2023-09-18T13:21:12.627Z,2.08
2023-09-18T13:23:14.234Z,3.08
2023-09-18T13:25:22.118Z,2.38
2023-09-18T13:27:24.434Z,3.00
2023-09-18T13:29:26.157Z,2.33
2023-09-18T13:31:29.330Z,3.55
2023-09-18T13:33:31.058Z,4.85
2023-09-18T13:35:34.035Z,2.30
2023-09-18T13:37:36.622Z,3.17
2023-09-18T13:39:38.135Z,3.78
2023-09-18T13:41:42.288Z,2.83
2023-09-18T13:43:44.364Z,2.72
2023-09-18T13:45:46.770Z,2.13
2023-09-18T13:47:50.868Z,2.72
2023-09-18T13:49:53.117Z,2.38
2023-09-18T13:51:55.586Z,3.70
2023-09-18T13:53:57.891Z,4.32
2023-09-18T13:55:59.470Z,4.47
2023-09-18T13:58:04.120Z,2.53
2023-09-18T14:00:07.970Z,4.18
2023-09-18T14:02:09.796Z,4.20
2023-09-18T14:04:11.974Z,5.03
2023-09-18T14:06:13.558Z,2.92
2023-09-18T14:08:15.104Z,4.65
2023-09-18T14:10:16.796Z,4.20
2023-09-18T14:12:18.282Z,3.38
2023-09-18T14:14:19.826Z,4.00
2023-09-18T14:16:21.336Z,3.10
2023-09-18T14:18:22.943Z,3.58
2023-09-18T14:20:24.549Z,3.53
2023-09-18T14:22:26.339Z,3.85
2023-09-18T14:24:27.918Z,4.10
2023-09-18T14:26:29.362Z,4.03
2023-09-18T14:28:34.242Z,3.10
2023-09-18T14:30:35.912Z,3.20
2023-09-18T14:32:37.838Z,5.03
2023-09-18T14:34:40.038Z,4.18
2023-09-18T14:36:41.510Z,3.70
2023-09-18T14:38:43.010Z,2.97
2023-09-18T14:40:44.534Z,2.92
2023-09-18T14:42:45.983Z,4.45
2023-09-18T14:44:47.891Z,2.75
2023-09-18T14:46:50.389Z,3.92
2023-09-18T14:48:52.312Z,2.63
2023-09-18T14:50:56.966Z,3.80
2023-09-18T14:52:58.413Z,2.90
2023-09-18T14:57:27.819Z,3.97
2023-09-18T14:59:41.451Z,3.00
2023-09-18T15:01:44.690Z,2.60
2023-09-18T15:03:46.551Z,2.90
2023-09-18T15:05:48.679Z,4.15
2023-09-18T15:07:50.185Z,4.00
2023-09-18T15:09:51.602Z,4.05
2023-09-18T15:11:53.189Z,2.75
2023-09-18T15:13:54.616Z,3.95
2023-09-18T15:15:56.423Z,2.28
2023-09-18T15:17:58.775Z,2.45
2023-09-18T15:20:01.132Z,4.80
2023-09-18T15:22:04.068Z,3.45
2023-09-18T15:24:05.802Z,3.40
2023-09-18T15:26:08.114Z,3.10
2023-09-18T15:28:09.673Z,3.13
2023-09-18T15:30:12.432Z,4.18
2023-09-18T15:32:14.051Z,2.83
2023-09-18T15:34:15.637Z,2.60
2023-09-18T15:36:17.159Z,1.98
2023-09-18T15:38:18.686Z,3.17
2023-09-18T15:40:21.900Z,2.45
2023-09-18T15:42:23.426Z,4.30
2023-09-18T15:44:24.914Z,3.88
2023-09-18T15:46:26.434Z,2.60
2023-09-18T15:48:29.395Z,2.72
2023-09-18T15:50:38.260Z,2.03
2023-09-18T15:52:41.985Z,3.25
2023-09-18T15:54:45.220Z,3.65
2023-09-18T15:56:46.770Z,5.00
2023-09-18T15:58:49.132Z,4.90
2023-09-18T16:00:51.182Z,3.95
2023-09-18T16:02:52.894Z,3.15
2023-09-18T16:04:54.521Z,3.63
2023-09-18T16:06:55.940Z,3.42
2023-09-18T16:08:58.096Z,4.43
2023-09-18T16:11:00.567Z,3.78
2023-09-18T16:13:02.247Z,3.40
2023-09-18T16:15:05.688Z,3.75
2023-09-18T16:17:07.261Z,3.42
2023-09-18T16:19:08.793Z,1.63
2023-09-18T16:21:10.269Z,4.03
2023-09-18T16:23:11.722Z,1.98
2023-09-18T16:25:13.482Z,2.83
2023-09-18T16:27:15.056Z,4.00
2023-09-18T16:29:16.539Z,2.80
2023-09-18T16:31:17.982Z,2.70
2023-09-18T16:33:19.547Z,4.10
2023-09-18T16:35:21.045Z,2.75
2023-09-18T16:37:22.518Z,4.75
2023-09-18T16:39:26.690Z,2.17
2023-09-18T16:41:28.757Z,2.83
2023-09-18T16:43:36.294Z,2.83
2023-09-18T16:45:38.237Z,3.72
2023-09-18T16:47:39.848Z,2.60
2023-09-18T16:49:41.417Z,3.95
2023-09-18T16:51:45.709Z,3.65
2023-09-18T16:53:47.216Z,3.58
2023-09-18T16:55:48.784Z,3.25
2023-09-18T16:57:51.700Z,4.82
2023-09-18T16:59:55.215Z,3.95
2023-09-18T17:01:58.065Z,3.60
2023-09-18T17:03:59.744Z,3.05
2023-09-18T17:06:01.702Z,3.38
2023-09-18T17:08:07.685Z,5.18
2023-09-18T17:10:10.616Z,4.68
2023-09-18T17:12:13.468Z,4.85
2023-09-18T17:14:15.501Z,4.10
2023-09-18T17:16:20.145Z,3.03
2023-09-18T17:18:21.758Z,3.35
2023-09-18T17:20:23.871Z,2.45
2023-09-18T17:22:25.556Z,4.18
2023-09-18T17:24:27.006Z,4.75
2023-09-18T17:26:28.703Z,2.35
2023-09-18T17:28:30.226Z,2.67
2023-09-18T17:30:32.662Z,2.17
2023-09-18T17:32:35.820Z,4.07
2023-09-18T17:34:37.321Z,3.50
2023-09-18T17:36:41.679Z,3.60
2023-09-18T17:38:45.161Z,4.40
2023-09-18T17:40:46.796Z,2.55
2023-09-18T17:42:48.256Z,3.42
2023-09-18T17:44:50.452Z,3.50
2023-09-18T17:46:51.910Z,3.58
2023-09-18T17:48:53.341Z,2.47
2023-09-18T17:50:54.863Z,2.40
2023-09-18T17:52:56.313Z,3.70
2023-09-18T17:54:59.066Z,3.95
2023-09-18T17:57:00.883Z,3.70
2023-09-18T17:59:02.907Z,4.47
2023-09-18T18:01:06.423Z,4.95
2023-09-18T18:03:08.401Z,3.97
2023-09-18T18:05:10.319Z,2.58
2023-09-18T18:07:11.899Z,4.63
2023-09-18T18:09:13.430Z,4.00
2023-09-18T18:11:14.940Z,2.88
2023-09-18T18:13:16.544Z,5.38
2023-09-18T18:15:18.119Z,3.75
2023-09-18T18:17:20.049Z,3.08
2023-09-18T18:19:22.357Z,6.03
2023-09-18T18:21:23.864Z,4.07
2023-09-18T18:23:25.310Z,5.43
2023-09-18T18:25:27.192Z,3.92
2023-09-18T18:27:29.761Z,3.67
2023-09-18T18:29:31.216Z,4.60
2023-09-18T18:31:33.653Z,5.68
2023-09-18T18:33:35.828Z,4.53
2023-09-18T18:35:39.848Z,5.38
2023-09-18T18:37:41.350Z,6.65
2023-09-18T18:39:42.746Z,10.80
2023-09-18T18:41:44.210Z,3.78
2023-09-18T18:43:47.729Z,4.82
2023-09-18T18:45:53.466Z,3.33
2023-09-18T18:47:56.349Z,3.58
2023-09-18T18:49:57.816Z,2.88
2023-09-18T18:51:59.274Z,3.30
2023-09-18T18:54:07.160Z,6.30
2023-09-18T18:56:08.887Z,2.25
2023-09-18T18:58:10.325Z,4.43
2023-09-18T19:00:12.754Z,2.25
2023-09-18T19:02:14.402Z,2.63
2023-09-18T19:04:17.315Z,6.45
2023-09-18T19:06:18.840Z,2.33
2023-09-18T19:08:20.255Z,1.77
2023-09-18T19:10:21.671Z,4.15
2023-09-18T19:12:23.310Z,3.50
2023-09-18T19:14:24.730Z,2.63
2023-09-18T19:16:26.271Z,3.63
2023-09-18T19:18:31.131Z,5.40
2023-09-18T19:20:33.202Z,7.47
2023-09-18T19:22:35.868Z,5.57
2023-09-18T19:24:37.686Z,6.68
2023-09-18T19:26:39.198Z,6.47
2023-09-18T19:28:40.733Z,6.63
2023-09-18T19:30:46.918Z,3.03
2023-09-18T19:32:48.616Z,4.40
2023-09-18T19:34:50.641Z,3.20
2023-09-18T19:37:06.794Z,4.50
2023-09-18T19:39:10.212Z,3.40
2023-09-18T19:41:12.460Z,4.03
2023-09-18T19:43:14.746Z,2.75
2023-09-18T19:45:16.337Z,3.53
2023-09-18T19:47:18.548Z,3.35
2023-09-18T19:49:20.024Z,4.15
2023-09-18T19:51:21.517Z,5.05
2023-09-18T19:53:22.937Z,4.32
2023-09-18T19:55:29.706Z,3.25
2023-09-18T19:57:31.815Z,4.25
2023-09-18T19:59:33.240Z,3.33
2023-09-18T20:01:35.173Z,3.50
2023-09-18T20:03:36.844Z,3.08
2023-09-18T20:05:38.463Z,5.30
2023-09-18T20:07:39.918Z,4.32
2023-09-18T20:09:41.726Z,3.63
2023-09-18T20:11:43.293Z,4.40
2023-09-18T20:13:44.727Z,4.97
2023-09-18T20:15:46.175Z,3.42
2023-09-18T20:17:48.231Z,3.33
2023-09-18T20:19:50.376Z,4.53
2023-09-18T20:21:52.022Z,2.40
2023-09-18T20:23:54.437Z,4.13
2023-09-18T20:25:57.638Z,4.10
2023-09-18T20:27:59.067Z,4.65
2023-09-18T20:30:01.722Z,6.43
2023-09-18T20:32:04.292Z,2.95
2023-09-18T20:34:06.441Z,4.25
2023-09-18T20:36:08.064Z,3.58
2023-09-18T20:40:14.129Z,3.85
2023-09-18T20:42:15.575Z,5.50
2023-09-18T20:44:16.989Z,3.88
2023-09-18T20:46:18.461Z,4.30
2023-09-18T20:48:20.585Z,3.72
2023-09-18T20:50:22.146Z,4.90
2023-09-18T20:52:24.155Z,3.75
2023-09-18T20:54:25.594Z,3.47
2023-09-18T20:56:28.084Z,3.97
2023-09-18T20:58:30.313Z,4.25
2023-09-18T21:00:33.265Z,4.72
2023-09-18T21:02:34.899Z,4.50
2023-09-18T21:04:37.941Z,2.83
2023-09-18T21:06:39.369Z,4.55
2023-09-18T21:08:41.433Z,4.30
2023-09-18T21:10:42.906Z,2.80
2023-09-18T21:12:44.618Z,4.55
2023-09-18T21:14:46.187Z,4.07
2023-09-18T21:16:47.670Z,3.78
2023-09-18T21:18:50.203Z,3.38
2023-09-18T21:20:52.856Z,4.85
2023-09-18T21:22:54.405Z,3.53
2023-09-18T21:24:55.841Z,4.10
2023-09-18T21:26:57.318Z,3.72
2023-09-18T21:28:59.612Z,5.22
2023-09-18T21:31:16.370Z,4.03
2023-09-18T21:33:17.941Z,4.25
2023-09-18T21:35:20.150Z,3.85
2023-09-18T21:37:22.381Z,4.65
2023-09-18T21:39:23.804Z,5.93
2023-09-18T21:41:25.256Z,3.72
2023-09-18T21:43:26.701Z,4.30
2023-09-18T21:45:28.423Z,2.88
2023-09-18T21:47:30.003Z,2.97
2023-09-18T21:49:31.618Z,3.78
2023-09-18T21:51:35.436Z,3.85
2023-09-18T21:55:47.497Z,4.68
2023-09-18T21:57:48.982Z,4.45
2023-09-18T21:59:50.449Z,4.03
2023-09-18T22:01:55.292Z,3.92
2023-09-18T22:03:56.809Z,4.03
2023-09-18T22:05:58.352Z,4.60
2023-09-18T22:08:00.420Z,5.55
2023-09-18T22:10:01.868Z,3.53
2023-09-18T22:12:05.160Z,5.30
2023-09-18T22:14:06.859Z,3.97
2023-09-18T22:16:08.774Z,5.05
2023-09-18T22:18:10.813Z,4.20
2023-09-18T22:20:14.983Z,4.70
2023-09-18T22:22:16.547Z,4.90
2023-09-18T22:24:20.083Z,3.95
2023-09-18T22:26:21.913Z,4.40
2023-09-18T22:28:23.903Z,3.45
2023-09-18T22:30:25.570Z,3.70
2023-09-18T22:32:27.138Z,4.90
2023-09-18T22:34:29.383Z,6.47
2023-09-18T22:36:30.896Z,4.43
2023-09-18T22:39:22.005Z,3.53
2023-09-18T22:41:23.992Z,4.80
2023-09-18T22:44:03.860Z,3.58
2023-09-18T22:46:43.113Z,4.35
2023-09-18T22:49:22.337Z,4.43
2023-09-18T22:52:01.317Z,6.82
2023-09-18T22:54:03.619Z,4.93
2023-09-18T22:56:08.518Z,4.63
2023-09-18T22:58:11.416Z,5.88
2023-09-18T23:00:19.157Z,4.03
2023-09-18T23:02:21.197Z,5.35
2023-09-18T23:04:22.989Z,3.58
2023-09-18T23:06:27.758Z,4.68
2023-09-18T23:08:31.115Z,6.05
2023-09-18T23:10:32.649Z,5.38
2023-09-18T23:12:35.410Z,4.72
2023-09-18T23:14:38.412Z,4.60
2023-09-18T23:16:39.910Z,4.68
2023-09-18T23:18:41.378Z,5.93
2023-09-18T23:20:42.818Z,5.97
2023-09-18T23:22:45.008Z,5.60
2023-09-18T23:24:47.193Z,5.47
2023-09-18T23:26:49.537Z,4.70
2023-09-18T23:28:50.970Z,8.15
2023-09-18T23:30:53.321Z,5.32
2023-09-18T23:32:57.094Z,4.65
2023-09-18T23:35:00.680Z,4.60
2023-09-18T23:37:04.496Z,6.57
2023-09-18T23:39:06.881Z,5.85
2023-09-18T23:41:09.872Z,4.95
2023-09-18T23:43:11.548Z,3.92
2023-09-18T23:45:15.229Z,4.80
2023-09-18T23:47:16.698Z,5.95
2023-09-18T23:49:21.289Z,9.13
2023-09-18T23:51:24.721Z,4.85
2023-09-18T23:53:36.625Z,7.05
2023-09-18T23:55:38.238Z,4.18
2023-09-18T23:57:39.734Z,4.03
2023-09-18T23:59:41.137Z,8.15
